Time;durP1;ratioP1;P1;durP2;ratioP2;P2;SDS_P1;SDS_P2;PMS_P1;PMS_P2;Temp;Humidity;BMP_temperature;BMP_pressure;BME280_temperature;BME280_humidity;BME280_pressure;Samples;Min_cycle;Max_cycle;Signal;HPM_P1;HPM_P2
2021/12/28 00:01:04;;;;;;;44.35;15.98;;;6.50;99.90;;;;;;5032553;28;20028;-59
2021/12/28 00:03:31;;;;;;;35.05;15.25;;;6.50;99.90;;;;;;5033636;28;20447;-60
2021/12/28 00:05:58;;;;;;;38.72;15.82;;;6.60;99.90;;;;;;5033434;28;20044;-61
2021/12/28 00:08:24;;;;;;;35.58;14.82;;;6.60;99.90;;;;;;5033559;28;20018;-59
2021/12/28 00:10:50;;;;;;;38.70;14.70;;;6.50;99.90;;;;;;5033530;28;20048;-60
2021/12/28 00:13:16;;;;;;;46.05;15.45;;;6.50;99.90;;;;;;5032536;28;20029;-58
2021/12/28 00:18:21;;;;;;;34.45;13.32;;;6.70;99.90;;;;;;5033412;28;20017;-59
2021/12/28 00:20:52;;;;;;;52.28;14.95;;;6.70;99.90;;;;;;5032180;28;20396;-56
2021/12/28 00:23:32;;;;;;;67.57;16.30;;;6.70;99.90;;;;;;5032235;28;20021;-56
2021/12/28 00:25:59;;;;;;;54.22;17.50;;;6.70;99.90;;;;;;5033359;28;20055;-59
2021/12/28 00:29:12;;;;;;;89.43;19.55;;;6.60;99.90;;;;;;5031325;28;20035;-58
2021/12/28 00:31:38;;;;;;;78.53;17.63;;;6.60;99.90;;;;;;5013726;28;20075;-61
2021/12/28 00:34:03;;;;;;;58.53;15.85;;;6.70;99.90;;;;;;5012396;28;20120;-57
2021/12/28 00:36:29;;;;;;;64.88;16.70;;;6.70;99.90;;;;;;5013405;28;20037;-59
2021/12/28 00:38:56;;;;;;;65.93;18.88;;;6.80;99.90;;;;;;5013573;28;20034;-59
2021/12/28 00:41:22;;;;;;;68.13;19.20;;;6.80;99.90;;;;;;5012548;28;20022;-59
2021/12/28 00:43:48;;;;;;;45.60;15.82;;;6.90;99.90;;;;;;5012796;28;20022;-61
2021/12/28 00:46:14;;;;;;;74.63;16.85;;;7.00;99.90;;;;;;5012618;28;20026;-58
2021/12/28 00:48:39;;;;;;;74.55;20.58;;;7.00;99.90;;;;;;5013820;28;20036;-61
2021/12/28 00:51:06;;;;;;;67.00;18.48;;;7.00;99.90;;;;;;5013663;28;20060;-58
2021/12/28 00:53:32;;;;;;;42.42;13.82;;;7.00;99.90;;;;;;5013442;28;20028;-60
2021/12/28 00:55:57;;;;;;;59.55;15.90;;;7.20;99.90;;;;;;5013582;28;20097;-61
2021/12/28 00:58:23;;;;;;;41.38;14.70;;;7.30;99.90;;;;;;5012180;28;20022;-60
2021/12/28 01:00:50;;;;;;;46.95;16.52;;;7.40;99.90;;;;;;5012212;28;20014;-59
2021/12/28 01:03:17;;;;;;;40.60;13.90;;;7.50;99.90;;;;;;5013318;28;20113;-60
2021/12/28 01:05:44;;;;;;;44.78;14.23;;;7.50;99.90;;;;;;5013194;28;20057;-61
2021/12/28 01:08:10;;;;;;;33.03;12.85;;;7.60;99.90;;;;;;5013600;28;20157;-61
2021/12/28 01:10:46;;;;;;;53.15;15.55;;;7.60;99.90;;;;;;5014466;28;20037;-61
2021/12/28 01:13:11;;;;;;;43.63;15.73;;;7.70;99.90;;;;;;5017215;28;20053;-61
2021/12/28 01:15:37;;;;;;;37.90;15.73;;;7.70;99.90;;;;;;5017360;28;20050;-59
2021/12/28 01:18:03;;;;;;;46.67;15.20;;;7.60;99.90;;;;;;5017354;28;20021;-60
2021/12/28 01:20:29;;;;;;;47.10;16.42;;;7.50;99.90;;;;;;5017012;28;20049;-60
2021/12/28 01:22:56;;;;;;;38.58;13.55;;;7.50;99.90;;;;;;5017097;28;20026;-61
2021/12/28 01:25:22;;;;;;;47.08;15.55;;;7.60;99.90;;;;;;5016945;28;20033;-61
2021/12/28 01:27:47;;;;;;;64.38;18.02;;;7.60;99.90;;;;;;5015569;28;20026;-60
2021/12/28 01:30:15;;;;;;;51.55;15.40;;;7.60;99.90;;;;;;5016814;28;20018;-60
2021/12/28 01:32:41;;;;;;;50.13;15.68;;;7.50;99.90;;;;;;5016691;28;20065;-61
2021/12/28 01:35:10;;;;;;;39.13;14.57;;;7.60;99.90;;;;;;5015433;28;20080;-60
2021/12/28 01:37:36;;;;;;;64.85;18.55;;;7.60;99.90;;;;;;5016571;28;20026;-61
2021/12/28 01:40:04;;;;;;;40.70;14.43;;;7.70;99.90;;;;;;5016989;28;20052;-61
2021/12/28 01:42:30;;;;;;;43.95;15.38;;;7.70;99.90;;;;;;5016574;28;20033;-60
2021/12/28 01:44:56;;;;;;;44.95;14.32;;;7.80;99.90;;;;;;5016641;28;20112;-58
2021/12/28 01:47:22;;;;;;;40.58;15.98;;;7.80;99.90;;;;;;5015180;28;20112;-61
2021/12/28 01:49:48;;;;;;;40.55;15.13;;;7.70;99.90;;;;;;5015273;28;20025;-59
2021/12/28 01:52:13;;;;;;;39.80;15.13;;;7.70;99.90;;;;;;5016354;28;20404;-59
2021/12/28 01:55:06;;;;;;;46.85;16.50;;;7.80;99.90;;;;;;5014996;28;20022;-59
2021/12/28 01:57:32;;;;;;;46.13;16.45;;;7.70;99.90;;;;;;5016415;28;20021;-59
2021/12/28 01:59:57;;;;;;;48.45;16.27;;;7.70;99.90;;;;;;5016272;28;20117;-57
2021/12/28 02:02:23;;;;;;;49.42;17.33;;;7.60;99.90;;;;;;5015127;28;20026;-60
2021/12/28 02:04:50;;;;;;;50.78;17.05;;;7.50;99.90;;;;;;5014962;28;20032;-60
2021/12/28 02:07:16;;;;;;;63.55;17.92;;;7.60;99.90;;;;;;5014805;28;20026;-59
2021/12/28 02:09:41;;;;;;;80.47;18.90;;;7.50;99.90;;;;;;5015097;28;20026;-58
2021/12/28 02:12:07;;;;;;;87.90;18.90;;;7.50;99.90;;;;;;5016043;28;20104;-58
2021/12/28 02:14:33;;;;;;;65.60;19.25;;;7.40;99.90;;;;;;5014958;28;20029;-58
2021/12/28 02:16:59;;;;;;;62.53;18.30;;;7.40;99.90;;;;;;5015983;28;20093;-56
2021/12/28 02:19:24;;;;;;;58.03;17.73;;;7.50;99.90;;;;;;5015858;28;20050;-58
2021/12/28 02:21:50;;;;;;;62.83;19.88;;;7.50;99.90;;;;;;5015637;28;20097;-60
2021/12/28 02:24:16;;;;;;;60.45;17.85;;;7.50;99.90;;;;;;5015865;28;20033;-60
2021/12/28 02:26:41;;;;;;;61.28;18.88;;;7.50;99.90;;;;;;5014753;28;20537;-60
2021/12/28 02:29:07;;;;;;;45.50;16.27;;;7.60;99.90;;;;;;5015701;28;20026;-59
2021/12/28 02:31:33;;;;;;;50.70;17.10;;;7.60;99.90;;;;;;5014776;28;20129;-61
2021/12/28 02:34:00;;;;;;;50.22;16.73;;;7.70;99.90;;;;;;5015696;28;20029;-57
2021/12/28 02:36:26;;;;;;;41.03;15.43;;;7.70;99.90;;;;;;5015614;28;20038;-57
2021/12/28 02:38:52;;;;;;;38.33;14.68;;;7.70;99.90;;;;;;5014628;28;20018;-61
2021/12/28 02:41:17;;;;;;;45.63;16.00;;;7.80;99.90;;;;;;5014389;28;20021;-61
2021/12/28 02:43:48;;;;;;;40.83;15.98;;;7.80;99.90;;;;;;5014264;28;20089;-60
2021/12/28 02:46:13;;;;;;;41.15;15.68;;;7.80;99.90;;;;;;5015455;28;20040;-59
2021/12/28 02:48:41;;;;;;;53.45;16.63;;;7.80;99.90;;;;;;5015636;28;20022;-56
2021/12/28 02:51:13;;;;;;;38.42;14.68;;;7.80;99.90;;;;;;5015158;28;20061;-59
2021/12/28 02:53:38;;;;;;;46.72;16.95;;;7.80;99.90;;;;;;5014344;28;20109;-57
2021/12/28 02:56:05;;;;;;;44.58;16.65;;;7.70;99.90;;;;;;5014361;28;20093;-58
2021/12/28 02:58:33;;;;;;;54.35;16.60;;;7.60;99.90;;;;;;5014171;28;20026;-60
2021/12/28 03:01:08;;;;;;;40.10;15.23;;;7.70;99.90;;;;;;5012966;28;20032;-60
2021/12/28 03:03:36;;;;;;;46.67;15.50;;;7.60;99.90;;;;;;5013071;28;20049;-61
2021/12/28 03:06:05;;;;;;;45.85;15.80;;;7.70;99.90;;;;;;5014074;28;20060;-58
2021/12/28 03:08:33;;;;;;;41.10;14.25;;;7.60;99.90;;;;;;5014427;28;20022;-59
2021/12/28 03:11:01;;;;;;;42.58;14.55;;;7.60;99.90;;;;;;5014445;28;20025;-59
2021/12/28 03:13:38;;;;;;;51.05;16.08;;;7.60;99.90;;;;;;5013068;28;20029;-61
2021/12/28 03:16:04;;;;;;;40.95;15.18;;;7.70;99.90;;;;;;5014061;28;20084;-60
2021/12/28 03:18:30;;;;;;;44.25;16.08;;;7.70;99.90;;;;;;5013959;28;20022;-60
2021/12/28 03:20:58;;;;;;;45.95;14.88;;;7.80;99.90;;;;;;5013324;28;20052;-57
2021/12/28 03:23:25;;;;;;;34.75;14.40;;;7.80;99.90;;;;;;5013823;28;20022;-57
2021/12/28 03:25:51;;;;;;;42.10;16.40;;;7.80;99.90;;;;;;5012512;28;20061;-58
2021/12/28 03:28:21;;;;;;;46.25;15.90;;;7.90;99.90;;;;;;5012815;28;20022;-60
2021/12/28 03:30:48;;;;;;;41.85;14.07;;;7.90;99.90;;;;;;5013803;28;20030;-61
2021/12/28 03:33:14;;;;;;;39.55;14.80;;;7.90;99.90;;;;;;5012021;28;20026;-61
2021/12/28 03:35:40;;;;;;;35.70;14.45;;;7.90;99.90;;;;;;5013796;28;20036;-59
2021/12/28 03:38:06;;;;;;;37.60;14.23;;;7.90;99.90;;;;;;5012432;28;20030;-60
2021/12/28 03:40:33;;;;;;;42.15;15.65;;;7.90;99.90;;;;;;5013689;28;20058;-60
2021/12/28 03:42:58;;;;;;;46.25;14.75;;;7.90;99.90;;;;;;5013647;28;20030;-60
2021/12/28 03:45:24;;;;;;;39.72;14.50;;;7.90;99.90;;;;;;5013937;28;20026;-61
2021/12/28 03:47:50;;;;;;;35.35;13.02;;;8.00;99.90;;;;;;5013471;28;20030;-60
2021/12/28 03:50:18;;;;;;;38.10;13.68;;;8.00;99.90;;;;;;5013469;28;20099;-57
2021/12/28 03:52:46;;;;;;;34.83;12.40;;;8.00;99.90;;;;;;4974248;28;1113661;-60
2021/12/28 03:55:11;;;;;;;29.00;12.88;;;8.00;99.90;;;;;;5014230;28;20384;-60
2021/12/28 03:57:39;;;;;;;29.08;12.20;;;8.10;99.90;;;;;;5014432;28;20018;-61
2021/12/28 04:00:08;;;;;;;25.52;10.85;;;8.10;99.90;;;;;;5012874;28;20025;-60
2021/12/28 04:02:33;;;;;;;32.42;11.63;;;8.10;99.90;;;;;;5013998;28;20024;-61
2021/12/28 04:04:59;;;;;;;39.10;12.52;;;8.10;99.90;;;;;;5014062;28;20018;-61
2021/12/28 04:07:24;;;;;;;34.00;12.32;;;8.00;99.90;;;;;;5012984;28;20029;-60
2021/12/28 04:12:17;;;;;;;34.13;11.20;;;8.10;99.90;;;;;;5014266;28;20033;-60
2021/12/28 04:14:43;;;;;;;22.38;9.88;;;8.10;99.90;;;;;;5014214;28;20030;-61
2021/12/28 04:17:08;;;;;;;26.40;10.60;;;8.20;99.90;;;;;;5012936;28;20073;-59
2021/12/28 04:19:34;;;;;;;29.20;10.60;;;8.20;99.90;;;;;;5014058;28;20091;-61
2021/12/28 04:21:59;;;;;;;20.08;9.02;;;8.30;99.90;;;;;;5012840;28;20018;-61
2021/12/28 04:24:25;;;;;;;23.27;8.90;;;8.30;99.90;;;;;;5012832;28;20054;-60
2021/12/28 04:27:23;;;;;;;18.98;8.25;;;8.30;99.90;;;;;;5013648;28;20461;-61
2021/12/28 04:29:49;;;;;;;24.45;8.05;;;8.30;99.90;;;;;;5016322;28;20025;-60
2021/12/28 04:32:15;;;;;;;25.80;8.70;;;8.40;99.90;;;;;;5032105;28;20018;-58
2021/12/28 04:34:41;;;;;;;24.92;8.00;;;8.50;99.90;;;;;;5032019;28;20022;-60
2021/12/28 04:37:07;;;;;;;21.38;7.85;;;8.50;99.90;;;;;;5033287;28;20084;-61
2021/12/28 04:39:32;;;;;;;22.20;7.72;;;8.50;99.90;;;;;;5033564;28;20060;-60
2021/12/28 04:41:58;;;;;;;30.02;8.93;;;8.40;99.90;;;;;;5033501;28;20049;-61
2021/12/28 04:44:25;;;;;;;31.98;8.55;;;8.40;99.90;;;;;;5031057;28;20112;-61
2021/12/28 04:46:54;;;;;;;19.90;8.30;;;8.40;99.90;;;;;;5033238;28;20085;-61
2021/12/28 04:49:24;;;;;;;26.60;8.70;;;8.40;99.90;;;;;;5033226;28;20017;-61
2021/12/28 04:51:49;;;;;;;20.42;7.65;;;8.40;99.90;;;;;;5033342;28;20025;-60
2021/12/28 04:54:16;;;;;;;23.00;7.93;;;8.40;99.90;;;;;;5033189;28;20029;-57
2021/12/28 04:56:42;;;;;;;21.13;7.32;;;8.40;99.90;;;;;;5031856;28;20025;-60
2021/12/28 04:59:07;;;;;;;17.88;7.97;;;8.40;99.90;;;;;;5033055;28;20018;-59
2021/12/28 05:01:36;;;;;;;26.15;8.40;;;8.30;99.90;;;;;;5031793;28;20072;-59
2021/12/28 05:04:03;;;;;;;27.60;7.97;;;8.30;99.90;;;;;;5032081;28;20021;-57
2021/12/28 05:06:30;;;;;;;22.40;7.40;;;8.20;99.90;;;;;;5031728;28;20036;-59
2021/12/28 05:08:55;;;;;;;23.83;7.68;;;8.30;99.90;;;;;;5032638;28;20025;-57
2021/12/28 05:11:21;;;;;;;22.65;8.55;;;8.30;99.90;;;;;;5031714;28;20105;-58
2021/12/28 05:13:47;;;;;;;22.05;8.05;;;8.20;99.90;;;;;;5033196;28;20068;-60
2021/12/28 05:16:15;;;;;;;14.00;7.85;;;8.20;99.90;;;;;;5031571;28;20029;-61
2021/12/28 05:18:41;;;;;;;15.60;7.45;;;8.20;99.90;;;;;;5028246;28;20484;-58
2021/12/28 05:21:07;;;;;;;22.15;7.03;;;8.20;99.90;;;;;;5011888;28;20022;-60
2021/12/28 05:23:33;;;;;;;21.77;7.10;;;8.20;99.90;;;;;;5013155;28;20157;-59
2021/12/28 05:25:59;;;;;;;13.77;7.43;;;8.20;99.90;;;;;;5011845;28;20080;-59
2021/12/28 05:28:25;;;;;;;22.17;7.00;;;8.20;99.90;;;;;;5011823;28;20117;-59
2021/12/28 05:30:51;;;;;;;12.02;6.13;;;8.20;99.90;;;;;;5013586;28;20022;-61
2021/12/28 05:33:17;;;;;;;19.60;6.72;;;8.30;99.90;;;;;;5012044;28;20030;-59
2021/12/28 05:35:43;;;;;;;18.33;6.43;;;8.30;99.90;;;;;;5012864;28;20053;-59
2021/12/28 05:38:08;;;;;;;23.17;6.53;;;8.20;99.90;;;;;;5013283;28;20033;-60
2021/12/28 05:40:34;;;;;;;18.88;6.10;;;8.20;99.90;;;;;;5012970;28;20385;-59
2021/12/28 05:42:59;;;;;;;22.52;5.80;;;8.30;99.90;;;;;;5013178;28;20030;-56
2021/12/28 05:45:25;;;;;;;15.13;6.65;;;8.30;99.90;;;;;;5011691;28;20026;-60
2021/12/28 05:47:51;;;;;;;19.42;6.80;;;8.30;99.90;;;;;;5011976;28;20026;-60
2021/12/28 05:50:17;;;;;;;22.65;6.57;;;8.30;99.90;;;;;;5011675;28;20030;-60
2021/12/28 05:52:43;;;;;;;18.98;6.20;;;8.20;99.90;;;;;;5012087;28;20129;-59
2021/12/28 05:55:09;;;;;;;19.25;7.05;;;8.10;99.90;;;;;;5011511;28;20112;-59
2021/12/28 05:57:35;;;;;;;15.73;5.55;;;8.10;99.90;;;;;;5015455;28;20049;-60
2021/12/28 06:00:00;;;;;;;17.15;6.32;;;8.10;99.90;;;;;;5031678;28;20076;-56
2021/12/28 06:02:26;;;;;;;14.40;6.50;;;8.10;99.90;;;;;;5015004;28;20091;-60
2021/12/28 06:04:52;;;;;;;18.90;7.07;;;8.00;99.90;;;;;;5016231;28;20033;-57
2021/12/28 06:07:17;;;;;;;25.58;7.70;;;8.00;99.90;;;;;;5016158;28;20044;-59
2021/12/28 06:09:43;;;;;;;24.35;8.70;;;8.00;99.90;;;;;;5016157;28;20062;-56
2021/12/28 06:12:09;;;;;;;27.38;8.77;;;8.00;99.90;;;;;;5014836;28;20026;-58
2021/12/28 06:14:35;;;;;;;16.52;7.85;;;8.00;99.90;;;;;;5031176;28;20025;-55
2021/12/28 06:17:00;;;;;;;21.42;9.98;;;7.90;99.90;;;;;;5016189;28;20033;-55
2021/12/28 06:19:26;;;;;;;20.83;8.07;;;7.90;99.90;;;;;;5015990;28;20030;-60
2021/12/28 06:21:52;;;;;;;23.85;8.48;;;7.90;99.90;;;;;;5014769;28;20033;-60
2021/12/28 06:24:17;;;;;;;25.52;9.05;;;7.80;99.90;;;;;;5014639;28;20472;-56
2021/12/28 06:26:43;;;;;;;22.88;9.77;;;7.70;99.90;;;;;;5015808;28;20084;-56
2021/12/28 06:29:08;;;;;;;23.65;8.85;;;7.80;99.90;;;;;;5016121;28;20564;-59
2021/12/28 06:31:35;;;;;;;26.40;9.15;;;7.70;99.90;;;;;;5026938;28;20024;-60
2021/12/28 06:34:03;;;;;;;24.23;10.68;;;7.70;99.90;;;;;;5034284;28;20037;-59
2021/12/28 06:36:29;;;;;;;31.98;10.10;;;7.70;99.90;;;;;;5035364;28;20026;-58
2021/12/28 06:38:55;;;;;;;25.48;9.73;;;7.70;99.90;;;;;;5035445;28;20025;-55
2021/12/28 06:41:21;;;;;;;23.13;9.98;;;7.70;99.90;;;;;;5035471;28;20100;-59
2021/12/28 06:43:48;;;;;;;21.98;9.60;;;7.70;99.90;;;;;;5035406;28;20101;-59
2021/12/28 06:46:14;;;;;;;22.58;8.55;;;7.60;99.90;;;;;;5034318;28;20040;-60
2021/12/28 06:48:40;;;;;;;25.08;8.50;;;7.60;99.90;;;;;;5035379;28;20029;-56
2021/12/28 06:51:06;;;;;;;33.35;10.65;;;7.60;99.90;;;;;;5035363;28;20025;-57
2021/12/28 06:53:32;;;;;;;29.60;11.13;;;7.60;99.90;;;;;;5033970;28;20179;-57
2021/12/28 06:55:58;;;;;;;20.90;8.85;;;7.60;99.90;;;;;;5035197;28;20528;-58
2021/12/28 06:58:24;;;;;;;20.27;8.60;;;7.60;99.90;;;;;;5033865;28;20111;-59
2021/12/28 07:00:50;;;;;;;27.10;9.88;;;7.60;99.90;;;;;;5033766;28;20018;-59
2021/12/28 07:03:15;;;;;;;27.38;9.45;;;7.60;99.90;;;;;;5034998;28;20025;-58
2021/12/28 07:05:41;;;;;;;29.63;9.43;;;7.60;99.90;;;;;;5034738;28;20079;-56
2021/12/28 07:08:07;;;;;;;31.90;8.77;;;7.70;99.90;;;;;;5034037;28;20560;-56
2021/12/28 07:10:32;;;;;;;24.90;9.95;;;7.70;99.90;;;;;;5033884;28;20087;-59
2021/12/28 07:12:58;;;;;;;34.70;9.57;;;7.70;99.90;;;;;;5034933;28;20032;-59
2021/12/28 07:15:24;;;;;;;20.45;9.25;;;7.80;99.90;;;;;;5033735;28;20093;-59
2021/12/28 07:17:50;;;;;;;29.15;8.40;;;7.70;99.90;;;;;;5034913;28;20025;-58
2021/12/28 07:20:16;;;;;;;20.30;8.68;;;7.70;99.90;;;;;;5033481;28;20057;-54
2021/12/28 07:22:42;;;;;;;31.33;9.68;;;7.70;99.90;;;;;;5033280;28;20026;-55
2021/12/28 07:25:09;;;;;;;28.45;7.78;;;7.70;99.90;;;;;;5033839;28;20030;-59
2021/12/28 07:27:36;;;;;;;24.80;8.65;;;7.70;99.90;;;;;;5033096;28;20108;-59
2021/12/28 07:30:06;;;;;;;22.20;8.00;;;7.70;99.90;;;;;;5033395;28;20025;-57
2021/12/28 07:32:31;;;;;;;21.63;8.05;;;7.60;99.90;;;;;;5034318;28;20065;-57
2021/12/28 07:34:57;;;;;;;26.35;8.25;;;7.60;99.90;;;;;;5034498;28;20056;-55
2021/12/28 07:37:23;;;;;;;16.42;7.15;;;7.60;99.90;;;;;;5032894;28;20017;-59
2021/12/28 07:39:50;;;;;;;14.95;5.82;;;7.70;99.90;;;;;;5032941;28;20021;-55
2021/12/28 07:42:17;;;;;;;20.25;5.97;;;7.70;99.90;;;;;;5034124;28;20071;-57
2021/12/28 07:44:43;;;;;;;17.25;5.78;;;7.70;99.90;;;;;;5034128;28;20040;-54
2021/12/28 07:47:09;;;;;;;23.85;6.05;;;7.70;99.90;;;;;;5033669;28;20029;-52
2021/12/28 07:49:34;;;;;;;17.23;6.13;;;7.70;99.90;;;;;;5032896;28;20029;-58
2021/12/28 07:52:00;;;;;;;23.75;5.85;;;7.70;99.90;;;;;;5032752;28;20114;-59
2021/12/28 07:54:26;;;;;;;14.13;6.00;;;7.70;99.90;;;;;;5032589;28;20033;-58
2021/12/28 07:56:51;;;;;;;20.25;6.45;;;7.70;99.90;;;;;;5032875;28;20021;-57
2021/12/28 07:59:17;;;;;;;27.55;6.72;;;7.80;99.90;;;;;;5032615;28;20025;-59
2021/12/28 08:01:43;;;;;;;21.52;6.47;;;7.80;99.90;;;;;;5034108;28;20021;-59
2021/12/28 08:04:08;;;;;;;19.35;5.70;;;7.80;99.90;;;;;;5033789;28;20022;-58
2021/12/28 08:06:34;;;;;;;14.48;6.05;;;7.90;99.90;;;;;;5033053;28;20026;-58
2021/12/28 08:09:00;;;;;;;16.77;5.22;;;7.90;99.90;;;;;;5033656;28;20036;-57
2021/12/28 08:11:25;;;;;;;15.80;5.30;;;7.80;99.90;;;;;;5032442;28;20025;-56
2021/12/28 08:13:51;;;;;;;9.80;4.13;;;7.80;99.90;;;;;;5033688;28;20021;-58
2021/12/28 08:16:28;;;;;;;12.30;4.50;;;7.80;99.90;;;;;;5030479;28;20058;-54
2021/12/28 08:18:54;;;;;;;14.65;5.18;;;7.80;99.90;;;;;;5022339;28;20503;-57
2021/12/28 08:21:20;;;;;;;11.50;4.28;;;7.80;99.90;;;;;;5021413;28;20022;-58
2021/12/28 08:23:46;;;;;;;12.45;4.57;;;7.80;99.90;;;;;;5012473;28;20025;-58
2021/12/28 08:26:12;;;;;;;9.90;4.90;;;7.90;99.90;;;;;;5011926;28;20029;-57
2021/12/28 08:28:37;;;;;;;13.57;5.05;;;7.90;99.90;;;;;;5013638;28;20033;-58
2021/12/28 08:31:03;;;;;;;11.85;4.20;;;7.90;99.90;;;;;;5013527;28;20038;-58
2021/12/28 08:33:29;;;;;;;12.30;5.10;;;7.90;99.90;;;;;;5032088;28;20029;-59
2021/12/28 08:35:56;;;;;;;9.07;5.43;;;7.90;99.90;;;;;;5031892;28;20022;-59
2021/12/28 08:38:21;;;;;;;15.40;5.90;;;8.00;99.90;;;;;;5033343;28;20022;-59
2021/12/28 08:40:47;;;;;;;8.73;4.93;;;8.00;99.90;;;;;;5033466;28;20022;-57
2021/12/28 08:43:13;;;;;;;12.65;5.85;;;8.10;99.90;;;;;;5031677;28;20029;-58
2021/12/28 08:45:46;;;;;;;12.38;5.03;;;8.10;99.90;;;;;;5028283;28;20033;-58
2021/12/28 08:48:12;;;;;;;8.82;4.18;;;8.10;99.90;;;;;;5028759;28;20052;-57
2021/12/28 08:50:39;;;;;;;14.77;4.60;;;8.20;99.90;;;;;;5033176;28;20464;-59
2021/12/28 08:53:05;;;;;;;11.48;3.92;;;8.20;99.90;;;;;;5033083;28;20032;-58
2021/12/28 08:55:31;;;;;;;12.98;5.20;;;8.20;99.90;;;;;;5033061;28;20029;-60
2021/12/28 08:57:56;;;;;;;9.63;4.28;;;8.30;99.90;;;;;;5033661;28;20030;-60
2021/12/28 09:00:27;;;;;;;12.30;4.20;;;8.40;99.90;;;;;;5033289;28;20053;-61
2021/12/28 09:02:55;;;;;;;12.82;4.25;;;8.40;99.90;;;;;;5033491;28;20053;-59
2021/12/28 09:05:21;;;;;;;7.60;3.92;;;8.50;99.90;;;;;;5031877;28;20068;-56
2021/12/28 09:07:47;;;;;;;11.82;4.28;;;8.60;99.90;;;;;;5033069;28;20064;-58
2021/12/28 09:10:13;;;;;;;13.60;4.78;;;8.70;99.90;;;;;;5031804;28;20045;-55
2021/12/28 09:12:38;;;;;;;10.10;3.70;;;8.80;99.90;;;;;;5032202;28;20029;-59
2021/12/28 09:15:06;;;;;;;12.00;3.75;;;8.80;99.90;;;;;;5032843;28;20488;-58
2021/12/28 09:17:34;;;;;;;12.35;4.30;;;8.90;99.90;;;;;;5031974;28;20030;-59
2021/12/28 09:20:00;;;;;;;10.07;4.20;;;8.90;99.90;;;;;;5033132;28;20100;-58
2021/12/28 09:22:26;;;;;;;8.40;3.63;;;8.90;99.90;;;;;;5031665;28;20053;-57
2021/12/28 09:24:52;;;;;;;7.72;3.55;;;8.90;99.90;;;;;;5031657;28;20025;-59
2021/12/28 09:27:18;;;;;;;11.43;3.90;;;9.00;99.90;;;;;;5032817;28;20028;-58
2021/12/28 09:29:44;;;;;;;7.97;3.15;;;9.10;99.90;;;;;;5031961;28;20075;-55
2021/12/28 09:32:10;;;;;;;11.38;3.72;;;9.20;99.90;;;;;;5035927;28;20025;-56
2021/12/28 09:34:36;;;;;;;6.30;2.70;;;9.20;99.90;;;;;;5035389;28;20022;-57
2021/12/28 09:37:02;;;;;;;9.82;2.70;;;9.10;99.90;;;;;;5035209;28;20018;-59
2021/12/28 09:39:29;;;;;;;8.10;2.55;;;8.90;99.90;;;;;;5035291;28;20025;-57
2021/12/28 09:41:58;;;;;;;8.15;2.65;;;8.70;99.90;;;;;;5036464;28;20021;-56
2021/12/28 09:44:26;;;;;;;4.25;2.15;;;8.70;99.90;;;;;;5035542;28;20172;-56
2021/12/28 09:46:51;;;;;;;4.90;2.05;;;8.70;99.90;;;;;;5036431;28;20045;-56
2021/12/28 09:49:17;;;;;;;3.60;1.75;;;8.70;99.90;;;;;;5036644;28;20037;-56
2021/12/28 09:51:43;;;;;;;3.90;1.70;;;8.80;99.90;;;;;;5036448;28;20060;-58
2021/12/28 09:54:09;;;;;;;1.98;1.20;;;9.00;99.90;;;;;;5035313;28;20060;-57
2021/12/28 09:56:36;;;;;;;3.15;1.60;;;9.10;99.90;;;;;;5034887;28;20028;-53
2021/12/28 09:59:03;;;;;;;4.57;1.45;;;9.20;99.90;;;;;;5036211;28;20037;-57
2021/12/28 10:01:29;;;;;;;3.38;1.33;;;9.20;99.90;;;;;;5036110;28;20030;-58
2021/12/28 10:03:57;;;;;;;4.40;1.80;;;9.10;99.90;;;;;;5034766;28;20031;-57
2021/12/28 10:06:25;;;;;;;4.82;1.83;;;9.10;99.90;;;;;;5034740;28;20026;-58
2021/12/28 10:09:10;;;;;;;4.68;1.90;;;9.10;99.90;;;;;;5034830;28;20032;-57
2021/12/28 10:11:44;;;;;;;6.80;2.10;;;9.10;99.90;;;;;;5036578;28;20029;-57
2021/12/28 10:14:19;;;;;;;4.53;2.22;;;9.00;99.90;;;;;;5035898;28;20021;-57
2021/12/28 10:17:00;;;;;;;3.00;1.88;;;8.90;99.90;;;;;;5035791;28;20029;-58
2021/12/28 10:19:43;;;;;;;3.30;1.77;;;8.90;99.90;;;;;;5036569;28;20032;-57
2021/12/28 10:22:34;;;;;;;3.30;2.35;;;8.90;99.90;;;;;;5035763;28;20026;-57
2021/12/28 10:24:59;;;;;;;4.63;1.70;;;8.90;99.90;;;;;;5034396;28;20025;-53
2021/12/28 10:27:28;;;;;;;4.60;2.08;;;8.90;99.90;;;;;;5035567;28;20034;-56
2021/12/28 10:29:55;;;;;;;3.25;2.10;;;9.00;99.90;;;;;;5035613;28;20036;-56
2021/12/28 10:32:23;;;;;;;4.32;2.15;;;9.10;99.90;;;;;;5035568;28;20483;-57
2021/12/28 10:34:52;;;;;;;3.55;1.92;;;9.10;99.90;;;;;;5035156;28;20052;-58
2021/12/28 10:37:21;;;;;;;2.78;1.92;;;9.20;99.90;;;;;;5030920;28;20084;-57
2021/12/28 10:39:49;;;;;;;2.35;1.83;;;9.20;99.90;;;;;;5034156;28;20032;-56
2021/12/28 10:42:51;;;;;;;4.47;2.17;;;9.30;99.90;;;;;;5034299;28;20112;-55
2021/12/28 10:45:36;;;;;;;3.80;1.70;;;9.40;99.90;;;;;;5035243;28;20033;-57
2021/12/28 10:48:23;;;;;;;2.03;1.83;;;9.50;99.90;;;;;;5034056;28;20025;-56
2021/12/28 10:51:03;;;;;;;2.60;1.60;;;9.70;99.90;;;;;;5033880;28;20025;-56
2021/12/28 10:54:28;;;;;;;3.33;1.90;;;9.80;99.90;;;;;;5035173;28;20024;-58
2021/12/28 10:56:39;;;;;;;3.35;1.70;;;9.80;99.90;;;;;;5029281;28;20053;-58
2021/12/28 10:59:07;;;;;;;2.05;1.80;;;10.00;99.90;;;;;;5035427;28;20056;-57
2021/12/28 11:01:38;;;;;;;2.42;1.67;;;10.00;99.90;;;;;;5035028;28;20028;-56
2021/12/28 11:04:08;;;;;;;3.38;1.70;;;10.20;99.90;;;;;;5035280;28;20469;-56
2021/12/28 11:06:36;;;;;;;2.58;1.55;;;10.30;99.90;;;;;;5035149;28;20021;-55
2021/12/28 11:09:06;;;;;;;3.28;1.50;;;10.50;99.90;;;;;;5034900;28;20029;-56
2021/12/28 11:11:33;;;;;;;2.10;1.65;;;10.60;99.90;;;;;;5033562;28;20120;-53
2021/12/28 11:14:03;;;;;;;2.22;1.67;;;10.70;99.90;;;;;;5033906;28;20030;-54
2021/12/28 11:16:31;;;;;;;3.25;1.50;;;10.60;99.90;;;;;;5033582;28;20029;-55
2021/12/28 11:18:59;;;;;;;1.95;1.67;;;10.60;99.90;;;;;;5034337;28;20025;-57
2021/12/28 11:21:28;;;;;;;1.77;1.40;;;10.40;99.90;;;;;;5033532;28;20025;-57
2021/12/28 11:24:01;;;;;;;2.00;1.80;;;10.20;99.90;;;;;;5034615;28;20029;-52
2021/12/28 11:26:31;;;;;;;2.10;1.90;;;10.20;99.90;;;;;;5033246;28;20022;-52
2021/12/28 11:28:58;;;;;;;2.85;2.10;;;10.20;99.90;;;;;;5035127;28;20017;-55
2021/12/28 11:31:39;;;;;;;5.38;2.42;;;10.10;99.90;;;;;;5034466;28;20022;-58
2021/12/28 11:34:31;;;;;;;4.38;2.22;;;10.00;99.90;;;;;;5034521;28;20385;-54
2021/12/28 11:37:01;;;;;;;6.25;2.65;;;9.90;99.90;;;;;;5034254;28;20052;-54
2021/12/28 11:39:33;;;;;;;3.80;2.78;;;9.90;99.90;;;;;;5033065;28;20022;-54
2021/12/28 11:41:59;;;;;;;;;;;9.90;99.90;;;;;;5033404;28;20068;-55
2021/12/28 11:44:26;;;;;;;4.35;2.92;;;9.80;99.90;;;;;;5034207;28;19992;-55
2021/12/28 11:46:53;;;;;;;2.80;2.45;;;9.70;99.90;;;;;;5032875;28;20037;-51
2021/12/28 11:49:24;;;;;;;4.00;3.20;;;9.80;99.90;;;;;;5034408;28;20025;-55
2021/12/28 11:51:52;;;;;;;6.70;2.90;;;9.70;99.90;;;;;;5032719;28;20037;-53
2021/12/28 11:54:19;;;;;;;6.57;4.00;;;9.70;99.90;;;;;;5032259;28;20029;-51
2021/12/28 11:56:49;;;;;;;8.45;4.78;;;9.60;99.90;;;;;;5034070;28;20063;-55
2021/12/28 11:59:21;;;;;;;5.88;4.68;;;9.50;99.90;;;;;;5034352;28;20021;-56
2021/12/28 12:01:59;;;;;;;6.47;4.10;;;9.40;99.90;;;;;;5033930;28;20109;-55
2021/12/28 12:04:30;;;;;;;4.40;3.00;;;9.50;99.90;;;;;;5032627;28;20022;-55
2021/12/28 12:07:00;;;;;;;6.10;3.33;;;9.60;99.90;;;;;;5032163;28;20028;-58
2021/12/28 12:09:26;;;;;;;11.40;3.35;;;9.70;99.90;;;;;;5033726;28;20048;-57
2021/12/28 12:12:18;;;;;;;4.10;3.20;;;9.80;99.90;;;;;;5032556;28;20036;-56
2021/12/28 12:14:50;;;;;;;3.75;3.28;;;9.90;99.90;;;;;;5032969;28;20380;-57
2021/12/28 12:17:40;;;;;;;4.93;3.30;;;9.90;99.90;;;;;;5032381;28;20026;-59
2021/12/28 12:20:07;;;;;;;4.82;2.50;;;10.10;99.90;;;;;;5023683;28;20045;-58
2021/12/28 12:22:37;;;;;;;4.18;3.30;;;10.10;99.90;;;;;;5033641;28;20053;-59
2021/12/28 12:25:14;;;;;;;3.35;2.30;;;10.20;99.90;;;;;;5032649;28;20469;-57
2021/12/28 12:27:57;;;;;;;3.53;2.15;;;10.30;99.90;;;;;;5032775;28;20063;-58
2021/12/28 12:30:23;;;;;;;3.33;2.72;;;10.30;99.90;;;;;;5033037;28;20022;-57
2021/12/28 12:32:58;;;;;;;4.82;2.30;;;10.30;99.90;;;;;;5033402;28;20072;-56
2021/12/28 12:35:36;;;;;;;3.47;2.00;;;10.30;99.90;;;;;;5033535;28;20088;-56
2021/12/28 12:38:17;;;;;;;2.92;2.47;;;10.20;99.90;;;;;;5013611;28;20068;-57
2021/12/28 12:40:59;;;;;;;2.80;2.47;;;10.00;99.90;;;;;;5012648;28;20028;-55
2021/12/28 12:43:38;;;;;;;3.00;2.38;;;10.10;99.90;;;;;;5012441;28;20072;-53
2021/12/28 12:46:10;;;;;;;6.82;2.60;;;10.10;99.90;;;;;;5014313;28;20040;-58
2021/12/28 12:48:36;;;;;;;5.20;3.00;;;10.00;99.90;;;;;;5012252;28;20064;-54
2021/12/28 12:51:22;;;;;;;4.57;3.00;;;10.00;99.90;;;;;;5012158;28;20038;-57
2021/12/28 12:53:58;;;;;;;5.53;2.55;;;10.00;99.90;;;;;;5012162;28;20026;-57
2021/12/28 12:56:33;;;;;;;2.40;2.03;;;10.00;99.90;;;;;;5013715;28;20018;-52